Time;durP1;ratioP1;P1;durP2;ratioP2;P2;SDS_P1;SDS_P2;PMS_P1;PMS_P2;Temp;Humidity;BMP_temperature;BMP_pressure;BME280_temperature;BME280_humidity;BME280_pressure;Samples;Min_cycle;Max_cycle;Signal;HPM_P1;HPM_P2
2023/01/20 00:02:15;;;;;;;7.28;2.95;;;;;;;;;;10474138;28;20051;-76
2023/01/20 00:07:18;;;;;;;10.63;3.30;;;;;;;;;;10482607;28;20063;-75
2023/01/20 00:12:22;;;;;;;10.93;3.17;;;;;;;;;;10469198;28;20500;-75
2023/01/20 00:17:24;;;;;;;8.73;3.50;;;;;;;;;;10476731;28;20052;-75
2023/01/20 00:22:27;;;;;;;11.67;3.93;;;;;;;;;;10479995;28;20045;-75
2023/01/20 00:27:31;;;;;;;5.80;2.90;;;;;;;;;;10472002;28;20033;-76
2023/01/20 00:32:36;;;;;;;12.32;3.25;;;;;;;;;;10483546;28;20063;-76
2023/01/20 00:37:39;;;;;;;5.90;3.03;;;;;;;;;;10480617;28;20032;-75
2023/01/20 00:42:43;;;;;;;8.30;3.33;;;;;;;;;;10474942;28;20136;-75
2023/01/20 00:47:45;;;;;;;12.18;3.97;;;;;;;;;;10480616;28;20048;-73
2023/01/20 00:52:48;;;;;;;9.33;4.17;;;;;;;;;;10484245;28;20056;-73
2023/01/20 00:57:52;;;;;;;8.87;3.60;;;;;;;;;;10475185;28;20129;-74
2023/01/20 01:02:55;;;;;;;;;;;;;;;;;;10476608;28;20044;-73
2023/01/20 01:07:57;;;;;;;9.80;3.97;;;;;;;;;;10476107;28;19932;-75
2023/01/20 01:13:02;;;;;;;11.07;3.60;;;;;;;;;;10477195;28;20094;-74
2023/01/20 01:18:04;;;;;;;;;;;;;;;;;;10476476;28;20045;-74
2023/01/20 01:23:07;;;;;;;10.27;3.57;;;;;;;;;;10476697;28;19931;-74
2023/01/20 01:28:11;;;;;;;10.40;3.80;;;;;;;;;;10469014;28;20040;-76
2023/01/20 01:33:13;;;;;;;9.40;4.20;;;;;;;;;;10476504;28;20114;-76
2023/01/20 01:38:16;;;;;;;10.43;4.10;;;;;;;;;;10470841;28;20044;-77
2023/01/20 01:43:23;;;;;;;8.87;3.73;;;;;;;;;;10466989;28;20056;-75
2023/01/20 01:48:28;;;;;;;9.93;4.00;;;;;;;;;;10469206;28;20036;-74
2023/01/20 01:53:33;;;;;;;12.47;4.10;;;;;;;;;;10472787;28;20051;-75
2023/01/20 01:58:38;;;;;;;8.40;2.50;;;;;;;;;;10476475;28;20045;-76
2023/01/20 02:03:44;;;;;;;4.73;2.50;;;;;;;;;;10473673;28;20045;-75
2023/01/20 02:08:48;;;;;;;8.73;3.87;;;;;;;;;;10471140;28;20029;-76
2023/01/20 02:13:52;;;;;;;7.77;4.03;;;;;;;;;;10473586;28;20070;-75
2023/01/20 02:18:59;;;;;;;7.32;2.83;;;;;;;;;;10474018;28;20067;-74
2023/01/20 02:24:27;;;;;;;13.13;4.17;;;;;;;;;;10465535;28;20386;-75
2023/01/20 02:29:44;;;;;;;14.80;4.30;;;;;;;;;;10471120;28;20041;-74
2023/01/20 02:34:52;;;;;;;6.90;2.47;;;;;;;;;;10476139;28;20118;-74
2023/01/20 02:40:09;;;;;;;9.73;3.97;;;;;;;;;;10470895;28;20162;-75
2023/01/20 02:45:15;;;;;;;5.40;3.10;;;;;;;;;;10469118;28;20486;-75
2023/01/20 02:50:22;;;;;;;4.90;2.67;;;;;;;;;;10467586;28;20024;-75
2023/01/20 02:55:28;;;;;;;8.07;3.10;;;;;;;;;;10477464;28;20068;-75
2023/01/20 03:00:33;;;;;;;2.07;1.37;;;;;;;;;;10477662;28;20090;-75
2023/01/20 03:05:39;;;;;;;9.03;3.63;;;;;;;;;;10479428;28;20056;-75
2023/01/20 03:10:42;;;;;;;6.80;2.30;;;;;;;;;;10480355;28;20051;-74
2023/01/20 03:15:49;;;;;;;7.83;3.33;;;;;;;;;;10483085;28;20059;-75
2023/01/20 03:20:53;;;;;;;9.80;3.77;;;;;;;;;;10478415;28;20363;-75
2023/01/20 03:25:56;;;;;;;11.18;4.10;;;;;;;;;;10475029;28;20036;-74
2023/01/20 03:31:00;;;;;;;5.63;2.50;;;;;;;;;;10480613;28;20052;-74
2023/01/20 03:36:04;;;;;;;8.80;3.63;;;;;;;;;;10480208;28;20045;-74
2023/01/20 03:41:10;;;;;;;2.92;1.70;;;;;;;;;;10481767;28;20147;-74
2023/01/20 03:46:15;;;;;;;5.03;2.57;;;;;;;;;;10478151;28;20102;-75
2023/01/20 03:51:23;;;;;;;4.60;1.87;;;;;;;;;;10482142;28;20068;-75
2023/01/20 03:56:28;;;;;;;2.17;1.53;;;;;;;;;;10480479;28;20449;-74
2023/01/20 04:01:32;;;;;;;7.17;3.30;;;;;;;;;;10478217;28;20053;-75
2023/01/20 04:06:37;;;;;;;4.00;2.03;;;;;;;;;;10482706;28;20060;-74
2023/01/20 04:11:39;;;;;;;3.87;1.50;;;;;;;;;;10476109;28;20111;-74
2023/01/20 04:16:42;;;;;;;4.17;1.93;;;;;;;;;;10477980;28;20040;-76
2023/01/20 04:21:48;;;;;;;4.23;1.80;;;;;;;;;;10472317;28;20036;-74
2023/01/20 04:26:50;;;;;;;4.23;1.67;;;;;;;;;;10480268;28;20032;-75
2023/01/20 04:31:57;;;;;;;7.03;2.17;;;;;;;;;;10477809;28;20041;-75
2023/01/20 04:37:02;;;;;;;7.77;3.53;;;;;;;;;;10478839;28;20044;-75
2023/01/20 04:42:04;;;;;;;8.23;2.55;;;;;;;;;;10477856;28;20106;-76
2023/01/20 04:47:07;;;;;;;6.17;2.27;;;;;;;;;;10482474;28;20044;-74
2023/01/20 04:52:11;;;;;;;9.60;4.37;;;;;;;;;;10476751;28;20047;-73
2023/01/20 04:57:14;;;;;;;10.85;4.45;;;;;;;;;;10474925;28;20045;-75
2023/01/20 05:02:16;;;;;;;4.97;2.47;;;;;;;;;;10479961;28;20048;-74
2023/01/20 05:07:20;;;;;;;11.03;4.20;;;;;;;;;;10472825;28;20049;-75
2023/01/20 05:12:23;;;;;;;3.95;1.45;;;;;;;;;;10478731;28;20056;-76
2023/01/20 05:17:25;;;;;;;11.30;4.33;;;;;;;;;;10476889;28;20099;-73
2023/01/20 05:22:32;;;;;;;12.53;4.90;;;;;;;;;;10475365;28;20457;-74
2023/01/20 05:27:34;;;;;;;14.33;5.77;;;;;;;;;;10476115;28;20045;-75
2023/01/20 05:32:37;;;;;;;11.27;5.70;;;;;;;;;;10480985;28;20093;-74
2023/01/20 05:37:41;;;;;;;3.50;1.40;;;;;;;;;;10474354;28;20051;-75
2023/01/20 05:42:44;;;;;;;7.13;2.50;;;;;;;;;;10471736;28;20451;-75
2023/01/20 05:47:47;;;;;;;14.57;5.60;;;;;;;;;;10470769;28;20102;-73
2023/01/20 05:52:51;;;;;;;16.30;6.47;;;;;;;;;;10476346;28;20040;-73
2023/01/20 05:57:54;;;;;;;8.43;2.47;;;;;;;;;;10473342;28;20036;-73
2023/01/20 06:02:57;;;;;;;3.53;2.00;;;;;;;;;;10506542;28;20381;-76
2023/01/20 06:08:01;;;;;;;7.47;3.17;;;;;;;;;;10476169;28;20033;-74
2023/01/20 06:13:03;;;;;;;12.82;5.43;;;;;;;;;;10471470;28;20052;-74
2023/01/20 06:18:06;;;;;;;12.37;4.90;;;;;;;;;;10469573;28;20045;-75
2023/01/20 06:23:10;;;;;;;12.83;5.47;;;;;;;;;;10477112;28;20044;-75
2023/01/20 06:28:13;;;;;;;12.50;5.00;;;;;;;;;;10467530;28;20064;-74
2023/01/20 06:33:15;;;;;;;13.27;4.93;;;;;;;;;;10474868;28;20056;-74
2023/01/20 06:38:19;;;;;;;12.00;4.60;;;;;;;;;;10470845;28;20037;-74
2023/01/20 06:43:22;;;;;;;14.90;6.13;;;;;;;;;;10469643;28;20044;-74
2023/01/20 06:48:24;;;;;;;12.23;5.47;;;;;;;;;;10473937;28;20510;-74
2023/01/20 06:53:28;;;;;;;9.57;5.10;;;;;;;;;;10473959;28;20040;-76
2023/01/20 06:58:31;;;;;;;;;;;;;;;;;;10476453;28;20048;-74
2023/01/20 07:03:34;;;;;;;17.17;6.43;;;;;;;;;;10471322;28;19926;-75
2023/01/20 07:08:37;;;;;;;13.97;6.23;;;;;;;;;;10468260;28;20041;-74
2023/01/20 07:13:40;;;;;;;14.15;7.13;;;;;;;;;;10468453;28;20495;-74
2023/01/20 07:18:43;;;;;;;13.37;6.10;;;;;;;;;;10472675;28;20041;-74
2023/01/20 07:23:47;;;;;;;15.53;6.13;;;;;;;;;;10473127;28;20044;-74
2023/01/20 07:28:50;;;;;;;;;;;;;;;;;;10467896;28;20040;-74
2023/01/20 07:33:54;;;;;;;7.27;3.77;;;;;;;;;;10469102;28;19924;-75
2023/01/20 07:38:59;;;;;;;8.00;3.27;;;;;;;;;;10470086;28;20052;-75
2023/01/20 07:44:02;;;;;;;13.82;6.18;;;;;;;;;;10470280;28;20044;-75
2023/01/20 07:49:05;;;;;;;11.23;5.17;;;;;;;;;;10471570;28;20347;-75
2023/01/20 07:54:10;;;;;;;8.67;3.93;;;;;;;;;;10475786;28;20053;-75
2023/01/20 07:59:12;;;;;;;10.47;4.17;;;;;;;;;;10479446;28;20046;-76
2023/01/20 08:04:16;;;;;;;11.87;5.13;;;;;;;;;;10477942;28;20048;-77
2023/01/20 08:09:20;;;;;;;9.30;2.83;;;;;;;;;;10472370;28;20056;-75
2023/01/20 08:14:23;;;;;;;7.78;3.25;;;;;;;;;;10477303;28;20529;-75
2023/01/20 08:19:28;;;;;;;11.30;4.73;;;;;;;;;;10476381;28;20493;-75
2023/01/20 08:24:32;;;;;;;7.33;2.37;;;;;;;;;;10475586;28;20045;-76
2023/01/20 08:29:35;;;;;;;12.07;5.32;;;;;;;;;;10475737;28;20052;-75
2023/01/20 08:34:37;;;;;;;15.43;5.70;;;;;;;;;;10505744;28;20639;-75
2023/01/20 08:39:42;;;;;;;6.87;3.47;;;;;;;;;;10478157;28;20065;-76
2023/01/20 08:44:45;;;;;;;;;;;;;;;;;;10474401;28;20060;-75
2023/01/20 08:49:48;;;;;;;4.40;2.30;;;;;;;;;;10474253;28;19994;-76
2023/01/20 08:54:52;;;;;;;10.33;5.03;;;;;;;;;;10480774;28;20094;-75
2023/01/20 08:59:55;;;;;;;10.97;4.07;;;;;;;;;;10477465;28;20048;-75
2023/01/20 09:04:58;;;;;;;8.93;3.17;;;;;;;;;;10471177;28;20044;-74
2023/01/20 09:10:02;;;;;;;6.70;3.07;;;;;;;;;;10480459;28;20513;-76
2023/01/20 09:15:06;;;;;;;8.07;4.32;;;;;;;;;;10481520;28;20060;-75
2023/01/20 09:20:08;;;;;;;;;;;;;;;;;;10483339;28;20141;-75
2023/01/20 09:25:12;;;;;;;10.00;4.10;;;;;;;;;;10472136;28;19924;-74
2023/01/20 09:30:15;;;;;;;;;;;;;;;;;;10480335;28;20043;-76
2023/01/20 09:35:17;;;;;;;6.83;3.20;;;;;;;;;;10474381;28;19927;-74
2023/01/20 09:46:03;;;;;;;13.80;5.30;;;;;;;;;;10390651;28;20096;-75
2023/01/20 09:56:31;;;;;;;5.10;1.73;;;;;;;;;;10475911;28;20063;-74
2023/01/20 10:01:37;;;;;;;11.17;4.20;;;;;;;;;;10468563;28;20107;-77
2023/01/20 10:06:41;;;;;;;9.13;2.90;;;;;;;;;;10469026;28;20045;-75
2023/01/20 10:11:43;;;;;;;;;;;;;;;;;;10470164;28;20049;-75
2023/01/20 10:16:51;;;;;;;10.90;4.53;;;;;;;;;;10473532;28;19964;-76
2023/01/20 10:21:58;;;;;;;8.33;3.90;;;;;;;;;;10466861;28;20401;-77
2023/01/20 10:27:01;;;;;;;9.60;3.83;;;;;;;;;;10470568;28;20044;-75
2023/01/20 10:32:09;;;;;;;6.97;3.30;;;;;;;;;;10471226;28;20565;-75
2023/01/20 10:37:14;;;;;;;10.33;4.33;;;;;;;;;;10474704;28;20037;-76
2023/01/20 10:42:17;;;;;;;8.05;3.67;;;;;;;;;;10467719;28;20068;-76
2023/01/20 10:47:33;;;;;;;7.50;2.63;;;;;;;;;;10470936;28;20078;-75
2023/01/20 10:52:44;;;;;;;3.30;2.00;;;;;;;;;;10471012;28;20526;-75
2023/01/20 10:57:48;;;;;;;5.10;3.10;;;;;;;;;;10469073;28;20040;-76
2023/01/20 11:02:52;;;;;;;4.03;2.30;;;;;;;;;;10466185;28;20436;-76
2023/01/20 11:07:56;;;;;;;5.03;1.98;;;;;;;;;;10465375;28;20067;-76
2023/01/20 11:13:00;;;;;;;6.68;2.53;;;;;;;;;;10471469;28;20041;-76
2023/01/20 11:18:25;;;;;;;5.85;2.42;;;;;;;;;;10475182;28;20094;-74
2023/01/20 11:23:34;;;;;;;4.50;2.03;;;;;;;;;;10481245;28;20033;-74
2023/01/20 11:28:44;;;;;;;2.70;1.77;;;;;;;;;;10481873;28;20079;-75
2023/01/20 11:33:58;;;;;;;6.43;2.88;;;;;;;;;;10474665;28;20639;-75
2023/01/20 11:39:01;;;;;;;1.75;1.17;;;;;;;;;;10467746;28;20052;-75
2023/01/20 11:44:06;;;;;;;6.10;2.95;;;;;;;;;;10479858;28;20044;-74
2023/01/20 11:49:17;;;;;;;5.22;2.58;;;;;;;;;;10479708;28;20549;-75
2023/01/20 11:54:21;;;;;;;6.07;2.75;;;;;;;;;;10477562;28;20150;-75
2023/01/20 11:59:26;;;;;;;11.67;4.70;;;;;;;;;;10474797;28;20119;-77
2023/01/20 12:04:41;;;;;;;4.57;2.20;;;;;;;;;;10482184;28;20094;-76
2023/01/20 12:09:43;;;;;;;;;;;;;;;;;;10482445;28;20095;-77
2023/01/20 12:14:48;;;;;;;7.50;4.28;;;;;;;;;;10483038;28;20097;-75
2023/01/20 12:19:59;;;;;;;10.07;4.30;;;;;;;;;;10472257;28;20193;-75
2023/01/20 12:25:10;;;;;;;9.18;5.07;;;;;;;;;;10478161;28;20490;-76
2023/01/20 12:30:19;;;;;;;9.55;4.75;;;;;;;;;;10477765;28;20065;-76
2023/01/20 12:35:27;;;;;;;12.38;5.22;;;;;;;;;;10477890;28;20044;-74
2023/01/20 12:40:35;;;;;;;9.70;4.97;;;;;;;;;;10478054;28;20037;-74
2023/01/20 12:45:46;;;;;;;14.85;5.65;;;;;;;;;;10475977;28;20394;-75
2023/01/20 12:50:57;;;;;;;8.57;3.30;;;;;;;;;;10477334;28;20048;-75
2023/01/20 12:56:04;;;;;;;14.63;5.87;;;;;;;;;;10475282;28;20117;-75
2023/01/20 13:01:16;;;;;;;14.83;6.17;;;;;;;;;;10469967;28;20046;-75
2023/01/20 13:06:34;;;;;;;16.97;8.13;;;;;;;;;;10476286;28;20040;-76
2023/01/20 13:11:46;;;;;;;16.63;6.80;;;;;;;;;;10471493;28;20037;-75
2023/01/20 13:16:52;;;;;;;14.90;6.63;;;;;;;;;;10471606;28;20048;-75
2023/01/20 13:21:54;;;;;;;20.67;8.63;;;;;;;;;;10474702;28;20043;-74
2023/01/20 13:27:12;;;;;;;14.93;6.50;;;;;;;;;;10473110;28;20482;-77
2023/01/20 13:32:34;;;;;;;13.93;6.93;;;;;;;;;;10472823;28;20056;-76
2023/01/20 13:37:37;;;;;;;14.77;5.23;;;;;;;;;;10474221;28;20474;-74
2023/01/20 13:42:51;;;;;;;17.47;7.93;;;;;;;;;;10471411;28;20094;-75
2023/01/20 13:47:57;;;;;;;14.98;5.35;;;;;;;;;;10473987;28;20056;-75
2023/01/20 13:53:18;;;;;;;21.90;9.17;;;;;;;;;;10481052;28;20036;-74
2023/01/20 13:58:22;;;;;;;22.13;8.77;;;;;;;;;;10472781;28;20049;-75
2023/01/20 14:03:27;;;;;;;15.40;7.10;;;;;;;;;;10471006;28;20094;-75
2023/01/20 14:08:31;;;;;;;18.53;6.87;;;;;;;;;;10468507;28;20044;-75
2023/01/20 14:13:35;;;;;;;14.00;6.00;;;;;;;;;;10467430;28;20040;-76
2023/01/20 14:18:40;;;;;;;15.60;6.57;;;;;;;;;;10473531;28;20126;-76
2023/01/20 14:23:44;;;;;;;11.83;3.87;;;;;;;;;;10473081;28;20052;-74
2023/01/20 14:28:47;;;;;;;;;;;;;;;;;;10468826;28;20056;-74
2023/01/20 14:33:56;;;;;;;15.77;6.27;;;;;;;;;;10471433;28;19921;-75
2023/01/20 14:39:01;;;;;;;18.10;8.30;;;;;;;;;;10472713;28;20648;-76
2023/01/20 14:44:15;;;;;;;19.83;8.43;;;;;;;;;;10469855;28;20511;-78
2023/01/20 14:49:19;;;;;;;22.37;7.80;;;;;;;;;;10472037;28;20092;-75
2023/01/20 14:54:39;;;;;;;14.03;5.73;;;;;;;;;;10476382;28;20506;-76
2023/01/20 14:59:41;;;;;;;15.40;6.37;;;;;;;;;;10477679;28;20063;-76
2023/01/20 15:04:45;;;;;;;17.07;7.83;;;;;;;;;;10477529;28;20063;-76
2023/01/20 15:09:53;;;;;;;22.63;9.13;;;;;;;;;;10479179;28;20041;-76
2023/01/20 15:14:59;;;;;;;16.37;6.90;;;;;;;;;;10477055;28;20615;-77
2023/01/20 15:20:03;;;;;;;18.17;6.67;;;;;;;;;;10475106;28;20044;-76
2023/01/20 15:25:12;;;;;;;22.77;9.15;;;;;;;;;;10481607;28;20110;-76
2023/01/20 15:30:19;;;;;;;12.13;5.13;;;;;;;;;;10480283;28;20052;-76
2023/01/20 15:35:25;;;;;;;21.57;8.23;;;;;;;;;;10479645;28;20079;-76
2023/01/20 15:40:28;;;;;;;19.47;8.03;;;;;;;;;;10475327;28;20498;-77
2023/01/20 15:45:30;;;;;;;22.87;8.00;;;;;;;;;;10483384;28;20065;-76
2023/01/20 15:50:44;;;;;;;23.20;9.63;;;;;;;;;;10475136;28;20138;-76
2023/01/20 15:55:46;;;;;;;;;;;;;;;;;;10478963;28;20045;-76
2023/01/20 16:00:49;;;;;;;20.07;8.03;;;;;;;;;;10477183;28;20064;-76
2023/01/20 16:05:54;;;;;;;25.83;9.13;;;;;;;;;;10470068;28;20059;-77
2023/01/20 16:10:57;;;;;;;14.73;5.80;;;;;;;;;;10478077;28;20048;-79
2023/01/20 16:16:00;;;;;;;24.47;7.63;;;;;;;;;;10468548;28;20363;-75
2023/01/20 16:21:04;;;;;;;19.57;7.70;;;;;;;;;;10470953;28;20032;-75
2023/01/20 16:26:06;;;;;;;;;;;;;;;;;;10477476;28;20057;-75
2023/01/20 16:31:10;;;;;;;28.00;10.27;;;;;;;;;;10472213;28;19986;-75
2023/01/20 16:36:15;;;;;;;23.87;8.67;;;;;;;;;;10475477;28;20127;-77
2023/01/20 16:41:20;;;;;;;24.60;9.60;;;;;;;;;;10473399;28;20056;-75
2023/01/20 16:46:24;;;;;;;21.57;8.77;;;;;;;;;;10455621;28;20056;-74
2023/01/20 16:51:28;;;;;;;25.50;10.63;;;;;;;;;;10472689;28;20044;-75
2023/01/20 16:56:31;;;;;;;21.63;9.40;;;;;;;;;;10472640;28;20073;-75
2023/01/20 17:01:34;;;;;;;18.83;7.60;;;;;;;;;;10475473;28;20045;-75
2023/01/20 17:06:39;;;;;;;21.13;8.60;;;;;;;;;;10473316;28;20044;-77
2023/01/20 17:11:42;;;;;;;21.40;8.77;;;;;;;;;;10475007;28;20535;-77
2023/01/20 17:16:45;;;;;;;27.13;10.37;;;;;;;;;;10480205;28;20430;-76
2023/01/20 17:21:49;;;;;;;19.83;7.97;;;;;;;;;;10481717;28;20568;-76
2023/01/20 17:26:53;;;;;;;22.80;9.30;;;;;;;;;;10477815;28;20543;-75
2023/01/20 17:31:56;;;;;;;26.63;9.93;;;;;;;;;;10474864;28;20029;-76
2023/01/20 17:37:03;;;;;;;25.70;9.63;;;;;;;;;;10471494;28;20090;-74
2023/01/20 17:42:06;;;;;;;25.02;9.23;;;;;;;;;;10470248;28;20072;-77
2023/01/20 17:47:08;;;;;;;26.37;10.17;;;;;;;;;;10476835;28;20052;-76
2023/01/20 17:52:12;;;;;;;25.90;9.93;;;;;;;;;;10473863;28;20037;-76
2023/01/20 17:57:15;;;;;;;26.80;10.05;;;;;;;;;;10477801;28;20048;-76
2023/01/20 18:02:19;;;;;;;29.97;10.80;;;;;;;;;;10474261;28;20048;-76
2023/01/20 18:07:23;;;;;;;26.37;9.83;;;;;;;;;;10476517;28;20047;-76
2023/01/20 18:12:26;;;;;;;29.65;9.80;;;;;;;;;;10469999;28;20045;-75
2023/01/20 18:17:33;;;;;;;26.47;9.57;;;;;;;;;;10472047;28;21065;-74
2023/01/20 18:22:37;;;;;;;29.77;10.27;;;;;;;;;;10477019;28;20067;-74
2023/01/20 18:27:39;;;;;;;27.17;10.35;;;;;;;;;;10470915;28;20438;-76
2023/01/20 18:32:42;;;;;;;26.90;9.87;;;;;;;;;;10464509;28;20041;-77
2023/01/20 18:38:00;;;;;;;29.97;10.77;;;;;;;;;;10476702;28;20032;-78
2023/01/20 18:43:04;;;;;;;25.83;10.03;;;;;;;;;;10470900;28;20494;-75
2023/01/20 18:48:08;;;;;;;28.07;9.93;;;;;;;;;;10472384;28;20122;-74
2023/01/20 18:53:13;;;;;;;27.10;10.90;;;;;;;;;;10471905;28;20045;-75
2023/01/20 18:58:16;;;;;;;25.00;10.35;;;;;;;;;;10468876;28;20498;-75
2023/01/20 19:03:19;;;;;;;32.70;10.67;;;;;;;;;;10472538;28;20205;-76
2023/01/20 19:08:23;;;;;;;31.40;12.00;;;;;;;;;;10469550;28;20829;-73
2023/01/20 19:13:26;;;;;;;;;;;;;;;;;;10470036;28;20039;-74
2023/01/20 19:18:28;;;;;;;28.97;11.43;;;;;;;;;;10477711;28;19973;-75
2023/01/20 19:23:32;;;;;;;31.40;11.40;;;;;;;;;;10471503;28;20086;-75
2023/01/20 19:28:35;;;;;;;29.50;11.25;;;;;;;;;;10469563;28;20430;-76
2023/01/20 19:33:38;;;;;;;26.50;10.47;;;;;;;;;;10470620;28;20053;-75
2023/01/20 19:38:43;;;;;;;24.97;9.80;;;;;;;;;;10475974;28;20074;-75
2023/01/20 19:43:46;;;;;;;25.00;10.50;;;;;;;;;;10482711;28;20040;-74
2023/01/20 19:48:48;;;;;;;29.00;9.63;;;;;;;;;;10481224;28;20053;-75
2023/01/20 19:53:56;;;;;;;31.97;11.37;;;;;;;;;;10484616;28;20101;-76
2023/01/20 19:59:00;;;;;;;28.53;10.53;;;;;;;;;;10482721;28;20044;-75
2023/01/20 20:04:04;;;;;;;24.15;9.95;;;;;;;;;;10483958;28;20542;-75
2023/01/20 20:09:07;;;;;;;;;;;;;;;;;;10485657;28;20044;-76
2023/01/20 20:14:12;;;;;;;28.00;10.77;;;;;;;;;;10476189;28;20437;-75
2023/01/20 20:19:16;;;;;;;22.37;8.73;;;;;;;;;;10483130;28;20398;-76
2023/01/20 20:24:22;;;;;;;26.80;10.07;;;;;;;;;;10483812;28;20316;-77
2023/01/20 20:29:26;;;;;;;28.23;10.63;;;;;;;;;;10473483;28;20044;-76
2023/01/20 20:34:29;;;;;;;28.60;10.80;;;;;;;;;;10485631;28;20128;-75
2023/01/20 20:39:32;;;;;;;29.17;9.87;;;;;;;;;;10482916;28;20044;-75
2023/01/20 20:44:36;;;;;;;25.17;9.00;;;;;;;;;;10479271;28;20510;-74
2023/01/20 20:49:38;;;;;;;28.85;10.40;;;;;;;;;;10475813;28;20053;-75
2023/01/20 20:54:41;;;;;;;27.60;9.83;;;;;;;;;;10480735;28;20519;-75
2023/01/20 20:59:45;;;;;;;23.20;8.73;;;;;;;;;;10477553;28;20396;-75
2023/01/20 21:05:00;;;;;;;27.67;9.30;;;;;;;;;;10484263;28;20042;-75
2023/01/20 21:10:04;;;;;;;25.37;9.57;;;;;;;;;;10473114;28;20041;-74
2023/01/20 21:15:10;;;;;;;24.05;8.52;;;;;;;;;;10475660;28;20037;-75
2023/01/20 21:20:12;;;;;;;20.07;8.80;;;;;;;;;;10473158;28;20056;-75
2023/01/20 21:25:16;;;;;;;25.50;9.40;;;;;;;;;;10478179;28;20124;-75
2023/01/20 21:30:20;;;;;;;25.50;9.52;;;;;;;;;;10483058;28;20044;-76
2023/01/20 21:35:23;;;;;;;23.13;8.60;;;;;;;;;;10474377;28;20048;-77
2023/01/20 21:40:26;;;;;;;24.23;8.27;;;;;;;;;;10481420;28;20048;-75
2023/01/20 21:45:30;;;;;;;23.87;9.43;;;;;;;;;;10477168;28;20071;-76
2023/01/20 21:55:53;;;;;;;27.53;10.03;;;;;;;;;;10480897;28;20110;-75
2023/01/20 22:00:57;;;;;;;24.13;8.47;;;;;;;;;;10476415;28;20445;-75
2023/01/20 22:06:02;;;;;;;27.00;9.02;;;;;;;;;;10476057;28;20486;-75
2023/01/20 22:11:05;;;;;;;20.07;6.87;;;;;;;;;;10475284;28;20045;-75
2023/01/20 22:16:09;;;;;;;21.10;7.43;;;;;;;;;;10480739;28;20352;-75
2023/01/20 22:21:12;;;;;;;;;;;;;;;;;;10479189;28;20055;-75
2023/01/20 22:26:15;;;;;;;22.33;8.97;;;;;;;;;;10486383;28;19950;-75
2023/01/20 22:31:22;;;;;;;27.80;10.03;;;;;;;;;;10479887;28;20063;-75
2023/01/20 22:36:25;;;;;;;27.37;10.40;;;;;;;;;;10475491;28;20068;-75
2023/01/20 22:41:27;;;;;;;25.87;9.07;;;;;;;;;;10472821;28;20138;-75
2023/01/20 22:46:31;;;;;;;28.67;9.83;;;;;;;;;;10477060;28;20058;-75
2023/01/20 22:51:34;;;;;;;25.52;10.13;;;;;;;;;;10478052;28;20436;-74
2023/01/20 22:56:37;;;;;;;22.10;9.00;;;;;;;;;;10476702;28;20379;-75
2023/01/20 23:01:41;;;;;;;20.98;7.93;;;;;;;;;;10478486;28;20086;-76
2023/01/20 23:06:44;;;;;;;23.15;9.55;;;;;;;;;;10482080;28;20032;-76
2023/01/20 23:11:47;;;;;;;21.83;8.20;;;;;;;;;;10479922;28;20071;-78
2023/01/20 23:16:51;;;;;;;23.47;8.77;;;;;;;;;;10488556;28;20123;-77
2023/01/20 23:21:54;;;;;;;22.45;9.00;;;;;;;;;;10481330;28;20066;-76
2023/01/20 23:26:56;;;;;;;28.97;9.10;;;;;;;;;;10484287;28;20052;-75
2023/01/20 23:32:00;;;;;;;27.17;9.63;;;;;;;;;;10481711;28;20071;-75
2023/01/20 23:37:03;;;;;;;27.70;9.27;;;;;;;;;;10471762;28;20517;-76
2023/01/20 23:42:06;;;;;;;26.03;8.70;;;;;;;;;;10476345;28;20044;-75
2023/01/20 23:47:10;;;;;;;20.17;9.07;;;;;;;;;;10478800;28;20062;-76
2023/01/20 23:52:13;;;;;;;25.88;9.27;;;;;;;;;;10476078;28;20052;-76
2023/01/20 23:57:15;;;;;;;21.57;7.23;;;;;;;;;;10477475;28;20048;-77
